Pagrindinis puslapis
METAR-TAF:

METAR-TAF

Oro uostai :

Kristianstadas, Švedija

platuma: 55-55N, ilguma: 014-05E, Aukštis: 23 m

Dabartinis oras

Ataskaita buvo paskelbta 25 minutes, ne 11:50 UTC
Vėjas 14 kt iš Šiaurės/Šiaurės Vakarų
Temperatūra 0°C
Drėgmė 80%
Slėgis 990 hPa
Matomumas 10 km arba daugiau
Išsisklaidę debesys ne aukštis 4700 ft
Su prošvaistėmis ne aukštis 7000 ft

METAR: ESMK 021150Z 33014KT 9999 SCT047 BKN070 M00/M03 Q0990

Laikas: 13:15 (12:15 UTC)

Prognozė

Ataskaita buvo paskelbta 46 minutes, ne 11:29 UTC
Prognozė galioja nuo 02 metu 12 UTC su 02 metu 20 UTC
Vėjas 10 kt iš Šiaurės/Šiaurės Vakarų
Matomumas 10 km arba daugiau
Išsisklaidę debesys ne aukštis 3000 ft

TAF: ESMK 021129Z 0212/0220 33010KT 9999 SCT030

Orai ataskaitas ir orų prognozės (METAR, TAF).

turimą stotys yra geltonos ir raudonos taškus žemėlapyje.

Perkelti pele per norėdami pamatyti stoties vardą.

Tada spustelėkite, norėdami matyti oro stebėjimo ir prognozės.

Norėdami pakeisti žemėlapį: spustelėkite ant žalios mygtukų su juodo kryžiaus žemyn,; žalią mygtuką su brūkšneliu, jei norite nutolinti; arba žalių rodyklių gretimoms žemėlapius.


METAR-TAF: